sensor_id;sensor_type;location;lat;lon;timestamp;pressure;altitude;pressure_sealevel;temperature;humidity
42007;BME280;27696;42.704;23.304;2022-08-03T00:01:27;95275.44;;;32.09;26.81
42007;BME280;27696;42.704;23.304;2022-08-03T00:03:53;95279.09;;;31.65;27.41
42007;BME280;27696;42.704;23.304;2022-08-03T00:06:18;95278.78;;;31.92;27.12
42007;BME280;27696;42.704;23.304;2022-08-03T00:08:44;95285.63;;;31.99;26.90
42007;BME280;27696;42.704;23.304;2022-08-03T00:11:09;95275.63;;;31.80;27.48
42007;BME280;27696;42.704;23.304;2022-08-03T00:13:34;95269.69;;;31.92;27.46
42007;BME280;27696;42.704;23.304;2022-08-03T00:16:00;95276.53;;;32.14;26.91
42007;BME280;27696;42.704;23.304;2022-08-03T00:18:25;95270.25;;;31.98;27.08
42007;BME280;27696;42.704;23.304;2022-08-03T00:20:51;95264.69;;;31.83;27.31
42007;BME280;27696;42.704;23.304;2022-08-03T00:23:16;95233.03;;;31.70;27.37
42007;BME280;27696;42.704;23.304;2022-08-03T00:25:42;95274.31;;;31.97;27.17
42007;BME280;27696;42.704;23.304;2022-08-03T00:28:08;95272.84;;;32.11;26.92
42007;BME280;27696;42.704;23.304;2022-08-03T00:30:34;95273.94;;;32.24;26.98
42007;BME280;27696;42.704;23.304;2022-08-03T00:33:00;95271.56;;;32.13;27.15
42007;BME280;27696;42.704;23.304;2022-08-03T00:35:27;95276.38;;;31.81;27.55
42007;BME280;27696;42.704;23.304;2022-08-03T00:37:52;95265.78;;;31.64;27.58
42007;BME280;27696;42.704;23.304;2022-08-03T00:40:18;95274.09;;;31.56;27.56
42007;BME280;27696;42.704;23.304;2022-08-03T00:42:55;95272.41;;;32.54;26.55
42007;BME280;27696;42.704;23.304;2022-08-03T00:45:26;95271.13;;;31.54;28.09
42007;BME280;27696;42.704;23.304;2022-08-03T00:47:53;95284.22;;;31.23;28.56
42007;BME280;27696;42.704;23.304;2022-08-03T00:50:20;95266.38;;;31.86;27.79
42007;BME280;27696;42.704;23.304;2022-08-03T00:52:47;95272.63;;;32.33;27.23
42007;BME280;27696;42.704;23.304;2022-08-03T00:55:13;95267.09;;;32.09;27.69
42007;BME280;27696;42.704;23.304;2022-08-03T00:57:39;95280.53;;;31.36;28.83
42007;BME280;27696;42.704;23.304;2022-08-03T01:00:07;95276.50;;;31.60;28.76
42007;BME280;27696;42.704;23.304;2022-08-03T01:02:34;95273.97;;;31.85;28.50
42007;BME280;27696;42.704;23.304;2022-08-03T01:04:59;95268.97;;;31.99;28.13
42007;BME280;27696;42.704;23.304;2022-08-03T01:13:26;95255.25;;;32.01;28.20
42007;BME280;27696;42.704;23.304;2022-08-03T01:16:06;95263.91;;;32.52;27.40
42007;BME280;27696;42.704;23.304;2022-08-03T01:18:43;95267.84;;;32.33;27.77
42007;BME280;27696;42.704;23.304;2022-08-03T01:21:20;95258.75;;;31.86;28.34
42007;BME280;27696;42.704;23.304;2022-08-03T01:31:52;95250.03;;;31.59;28.33
42007;BME280;27696;42.704;23.304;2022-08-03T01:34:25;95269.69;;;31.92;27.80
42007;BME280;27696;42.704;23.304;2022-08-03T01:36:55;95260.97;;;31.57;28.62
42007;BME280;27696;42.704;23.304;2022-08-03T01:39:23;95271.13;;;31.62;28.84
42007;BME280;27696;42.704;23.304;2022-08-03T01:41:57;95255.97;;;31.47;29.03
42007;BME280;27696;42.704;23.304;2022-08-03T01:44:29;95264.22;;;31.16;29.21
42007;BME280;27696;42.704;23.304;2022-08-03T01:46:59;95266.09;;;31.37;29.17
42007;BME280;27696;42.704;23.304;2022-08-03T01:49:27;95268.78;;;31.97;28.50
42007;BME280;27696;42.704;23.304;2022-08-03T01:51:55;95272.41;;;30.85;29.76
42007;BME280;27696;42.704;23.304;2022-08-03T01:54:23;95274.25;;;31.35;29.27
42007;BME280;27696;42.704;23.304;2022-08-03T01:56:50;95262.66;;;31.00;29.89
42007;BME280;27696;42.704;23.304;2022-08-03T01:59:18;95264.03;;;30.70;29.99
42007;BME280;27696;42.704;23.304;2022-08-03T02:01:45;95269.69;;;31.01;29.75
42007;BME280;27696;42.704;23.304;2022-08-03T02:04:13;95265.56;;;30.86;29.96
42007;BME280;27696;42.704;23.304;2022-08-03T02:06:44;95267.25;;;31.57;28.95
42007;BME280;27696;42.704;23.304;2022-08-03T02:09:12;95271.47;;;31.35;28.60
42007;BME280;27696;42.704;23.304;2022-08-03T02:11:39;95268.13;;;31.29;28.95
42007;BME280;27696;42.704;23.304;2022-08-03T02:14:05;95275.69;;;30.76;29.47
42007;BME280;27696;42.704;23.304;2022-08-03T02:16:32;95272.22;;;31.43;28.45
42007;BME280;27696;42.704;23.304;2022-08-03T02:19:01;95270.22;;;31.59;27.65
42007;BME280;27696;42.704;23.304;2022-08-03T02:21:28;95270.97;;;31.00;28.80
42007;BME280;27696;42.704;23.304;2022-08-03T02:23:56;95273.31;;;30.51;29.40
42007;BME280;27696;42.704;23.304;2022-08-03T02:26:23;95269.75;;;31.16;28.47
42007;BME280;27696;42.704;23.304;2022-08-03T02:28:55;95266.34;;;30.95;28.39
42007;BME280;27696;42.704;23.304;2022-08-03T02:31:23;95271.06;;;30.79;28.87
42007;BME280;27696;42.704;23.304;2022-08-03T02:33:52;95251.28;;;30.38;29.16
42007;BME280;27696;42.704;23.304;2022-08-03T02:36:24;95267.44;;;30.92;28.62
42007;BME280;27696;42.704;23.304;2022-08-03T02:38:53;95278.00;;;30.56;29.41
42007;BME280;27696;42.704;23.304;2022-08-03T02:41:23;95272.56;;;30.14;29.97
42007;BME280;27696;42.704;23.304;2022-08-03T02:43:53;95260.88;;;30.37;29.64
42007;BME280;27696;42.704;23.304;2022-08-03T02:46:24;95263.25;;;30.33;29.61
42007;BME280;27696;42.704;23.304;2022-08-03T02:48:51;95270.06;;;29.81;30.36
42007;BME280;27696;42.704;23.304;2022-08-03T02:51:19;95263.03;;;30.31;29.56
42007;BME280;27696;42.704;23.304;2022-08-03T02:53:46;95267.41;;;30.18;29.70
42007;BME280;27696;42.704;23.304;2022-08-03T07:37:55;95371.63;;;35.80;21.97
42007;BME280;27696;42.704;23.304;2022-08-03T07:40:21;95371.53;;;36.72;20.76
42007;BME280;27696;42.704;23.304;2022-08-03T07:42:46;95361.97;;;36.29;21.34
42007;BME280;27696;42.704;23.304;2022-08-03T07:45:12;95367.72;;;36.21;21.66
42007;BME280;27696;42.704;23.304;2022-08-03T07:47:37;95363.72;;;36.81;21.31
42007;BME280;27696;42.704;23.304;2022-08-03T07:50:04;95356.81;;;38.02;20.21
42007;BME280;27696;42.704;23.304;2022-08-03T07:52:30;95370.84;;;37.41;20.65
42007;BME280;27696;42.704;23.304;2022-08-03T07:55:19;95365.19;;;38.43;19.86
42007;BME280;27696;42.704;23.304;2022-08-03T07:57:45;95361.53;;;36.99;20.80
42007;BME280;27696;42.704;23.304;2022-08-03T08:00:18;95370.19;;;36.17;21.51
42007;BME280;27696;42.704;23.304;2022-08-03T08:02:44;95364.47;;;37.40;20.58
42007;BME280;27696;42.704;23.304;2022-08-03T08:05:10;95373.31;;;37.46;20.08
42007;BME280;27696;42.704;23.304;2022-08-03T08:07:37;95372.00;;;36.32;21.53
42007;BME280;27696;42.704;23.304;2022-08-03T08:10:05;95367.81;;;36.60;21.14
42007;BME280;27696;42.704;23.304;2022-08-03T08:12:31;95368.09;;;37.72;19.46
42007;BME280;27696;42.704;23.304;2022-08-03T08:14:56;95370.41;;;37.96;19.34
42007;BME280;27696;42.704;23.304;2022-08-03T08:17:22;95377.16;;;37.12;19.94
42007;BME280;27696;42.704;23.304;2022-08-03T08:19:47;95371.91;;;37.77;19.30
42007;BME280;27696;42.704;23.304;2022-08-03T08:22:12;95369.72;;;37.75;19.37
42007;BME280;27696;42.704;23.304;2022-08-03T08:24:38;95389.53;;;35.95;20.57
42007;BME280;27696;42.704;23.304;2022-08-03T08:27:04;95360.94;;;36.71;19.91
42007;BME280;27696;42.704;23.304;2022-08-03T08:29:29;95371.97;;;37.57;19.43
42007;BME280;27696;42.704;23.304;2022-08-03T08:31:55;95366.19;;;37.65;19.35
42007;BME280;27696;42.704;23.304;2022-08-03T08:34:20;95364.56;;;37.72;19.54
42007;BME280;27696;42.704;23.304;2022-08-03T08:36:48;95363.66;;;37.79;19.62
42007;BME280;27696;42.704;23.304;2022-08-03T08:39:14;95361.13;;;38.24;19.19
42007;BME280;27696;42.704;23.304;2022-08-03T08:41:39;95360.06;;;38.30;18.74
42007;BME280;27696;42.704;23.304;2022-08-03T08:44:05;95358.38;;;38.46;18.80
42007;BME280;27696;42.704;23.304;2022-08-03T08:46:32;95350.34;;;37.89;18.87
42007;BME280;27696;42.704;23.304;2022-08-03T08:48:58;95352.28;;;37.77;18.61
42007;BME280;27696;42.704;23.304;2022-08-03T08:51:29;95363.25;;;38.14;18.32
42007;BME280;27696;42.704;23.304;2022-08-03T08:53:55;95352.09;;;38.36;18.07
42007;BME280;27696;42.704;23.304;2022-08-03T08:56:24;95350.56;;;39.43;17.66
42007;BME280;27696;42.704;23.304;2022-08-03T08:58:58;95343.75;;;39.25;17.03
42007;BME280;27696;42.704;23.304;2022-08-03T09:01:24;95347.69;;;38.98;17.36
42007;BME280;27696;42.704;23.304;2022-08-03T09:03:49;95336.72;;;39.02;17.81
42007;BME280;27696;42.704;23.304;2022-08-03T09:06:15;95321.25;;;39.46;17.66
42007;BME280;27696;42.704;23.304;2022-08-03T09:08:41;95335.66;;;39.65;16.99
42007;BME280;27696;42.704;23.304;2022-08-03T09:11:06;95341.28;;;38.85;17.53
42007;BME280;27696;42.704;23.304;2022-08-03T09:13:33;95337.38;;;39.12;17.51
42007;BME280;27696;42.704;23.304;2022-08-03T09:18:33;95338.53;;;39.76;17.31
42007;BME280;27696;42.704;23.304;2022-08-03T09:21:24;95343.31;;;39.74;17.02
42007;BME280;27696;42.704;23.304;2022-08-03T09:23:52;95337.75;;;39.19;17.53
42007;BME280;27696;42.704;23.304;2022-08-03T09:26:28;95338.28;;;40.08;16.61
42007;BME280;27696;42.704;23.304;2022-08-03T09:31:39;95324.47;;;40.00;16.54
42007;BME280;27696;42.704;23.304;2022-08-03T09:34:09;95335.94;;;38.90;17.08
42007;BME280;27696;42.704;23.304;2022-08-03T09:39:07;95338.44;;;39.07;17.36
42007;BME280;27696;42.704;23.304;2022-08-03T09:41:42;95331.78;;;39.58;17.23
42007;BME280;27696;42.704;23.304;2022-08-03T09:44:08;95331.94;;;38.93;17.57
42007;BME280;27696;42.704;23.304;2022-08-03T09:46:54;95334.22;;;40.96;15.91
42007;BME280;27696;42.704;23.304;2022-08-03T09:49:20;95338.28;;;40.08;16.76
42007;BME280;27696;42.704;23.304;2022-08-03T09:51:47;95320.16;;;41.22;15.66
42007;BME280;27696;42.704;23.304;2022-08-03T09:54:12;95322.78;;;41.18;15.78
42007;BME280;27696;42.704;23.304;2022-08-03T09:56:49;95320.16;;;41.48;15.52
42007;BME280;27696;42.704;23.304;2022-08-03T09:59:23;95316.03;;;42.61;15.03
42007;BME280;27696;42.704;23.304;2022-08-03T10:01:49;95315.84;;;42.29;15.35
42007;BME280;27696;42.704;23.304;2022-08-03T10:04:15;95310.81;;;42.69;15.05
42007;BME280;27696;42.704;23.304;2022-08-03T10:07:05;95312.16;;;43.12;14.28
42007;BME280;27696;42.704;23.304;2022-08-03T10:09:31;95312.69;;;43.08;14.65
42007;BME280;27696;42.704;23.304;2022-08-03T10:11:57;95304.59;;;43.17;14.92
42007;BME280;27696;42.704;23.304;2022-08-03T10:14:31;95303.22;;;43.80;14.29
42007;BME280;27696;42.704;23.304;2022-08-03T10:16:56;95301.75;;;43.17;14.38
42007;BME280;27696;42.704;23.304;2022-08-03T10:19:22;95297.38;;;44.08;13.75
42007;BME280;27696;42.704;23.304;2022-08-03T10:21:54;95290.94;;;44.23;13.53
42007;BME280;27696;42.704;23.304;2022-08-03T10:24:24;95298.44;;;44.32;13.70
42007;BME280;27696;42.704;23.304;2022-08-03T10:26:52;95298.50;;;45.41;13.01
42007;BME280;27696;42.704;23.304;2022-08-03T10:29:21;95292.25;;;43.24;14.62
42007;BME280;27696;42.704;23.304;2022-08-03T10:31:53;95308.28;;;41.64;15.74
42007;BME280;27696;42.704;23.304;2022-08-03T10:34:26;95295.09;;;42.36;15.03
42007;BME280;27696;42.704;23.304;2022-08-03T10:36:55;95295.41;;;42.72;14.92
42007;BME280;27696;42.704;23.304;2022-08-03T10:39:27;95292.28;;;41.54;15.48
42007;BME280;27696;42.704;23.304;2022-08-03T10:41:54;95299.28;;;41.53;15.51
42007;BME280;27696;42.704;23.304;2022-08-03T10:44:23;95305.94;;;40.45;16.56
42007;BME280;27696;42.704;23.304;2022-08-03T10:46:51;95302.34;;;39.83;17.44
42007;BME280;27696;42.704;23.304;2022-08-03T10:49:18;95304.66;;;39.98;17.31
42007;BME280;27696;42.704;23.304;2022-08-03T10:51:46;95301.13;;;42.44;14.98
42007;BME280;27696;42.704;23.304;2022-08-03T10:54:44;95299.81;;;42.75;14.63
42007;BME280;27696;42.704;23.304;2022-08-03T10:57:50;95300.81;;;42.10;15.18
42007;BME280;27696;42.704;23.304;2022-08-03T11:00:27;95289.09;;;42.58;14.78
42007;BME280;27696;42.704;23.304;2022-08-03T11:03:04;95290.47;;;42.87;14.77
42007;BME280;27696;42.704;23.304;2022-08-03T11:05:32;95279.75;;;43.29;14.74
42007;BME280;27696;42.704;23.304;2022-08-03T11:10:51;95273.91;;;44.21;13.64
42007;BME280;27696;42.704;23.304;2022-08-03T11:13:19;95276.13;;;44.41;13.45
42007;BME280;27696;42.704;23.304;2022-08-03T11:15:47;95273.00;;;41.90;15.38
42007;BME280;27696;42.704;23.304;2022-08-03T11:18:14;95282.03;;;41.47;15.86
42007;BME280;27696;42.704;23.304;2022-08-03T11:20:52;95271.56;;;42.17;15.54
42007;BME280;27696;42.704;23.304;2022-08-03T11:23:39;95265.50;;;42.81;14.77
42007;BME280;27696;42.704;23.304;2022-08-03T11:26:08;95260.66;;;43.13;14.15
42007;BME280;27696;42.704;23.304;2022-08-03T11:28:34;95262.00;;;42.96;14.48
42007;BME280;27696;42.704;23.304;2022-08-03T11:34:09;95254.44;;;43.63;14.71
42007;BME280;27696;42.704;23.304;2022-08-03T11:39:46;95244.81;;;43.38;15.18
42007;BME280;27696;42.704;23.304;2022-08-03T11:45:00;95251.84;;;43.21;14.38
42007;BME280;27696;42.704;23.304;2022-08-03T11:47:27;95254.78;;;42.93;14.57
42007;BME280;27696;42.704;23.304;2022-08-03T11:49:56;95250.44;;;43.06;14.54
42007;BME280;27696;42.704;23.304;2022-08-03T11:52:23;95238.75;;;42.68;14.72
42007;BME280;27696;42.704;23.304;2022-08-03T11:54:53;95250.50;;;44.73;13.27
42007;BME280;27696;42.704;23.304;2022-08-03T11:57:33;95244.56;;;43.32;14.32
42007;BME280;27696;42.704;23.304;2022-08-03T11:59:59;95246.28;;;43.55;14.08
42007;BME280;27696;42.704;23.304;2022-08-03T12:02:24;95226.59;;;43.25;14.39
42007;BME280;27696;42.704;23.304;2022-08-03T12:04:54;95244.66;;;43.82;14.03
42007;BME280;27696;42.704;23.304;2022-08-03T12:07:26;95239.88;;;44.03;13.45
42007;BME280;27696;42.704;23.304;2022-08-03T12:10:10;95233.19;;;43.62;13.50
42007;BME280;27696;42.704;23.304;2022-08-03T12:12:36;95255.47;;;41.24;15.58
42007;BME280;27696;42.704;23.304;2022-08-03T12:15:03;95249.50;;;40.92;16.24
42007;BME280;27696;42.704;23.304;2022-08-03T12:17:39;95245.13;;;41.15;15.86
42007;BME280;27696;42.704;23.304;2022-08-03T12:20:08;95233.41;;;43.36;14.62
42007;BME280;27696;42.704;23.304;2022-08-03T12:22:38;95232.06;;;43.21;14.40
42007;BME280;27696;42.704;23.304;2022-08-03T12:25:08;95241.03;;;42.28;14.70
42007;BME280;27696;42.704;23.304;2022-08-03T12:27:34;95232.09;;;42.61;14.77
42007;BME280;27696;42.704;23.304;2022-08-03T12:30:00;95228.59;;;43.23;14.30
42007;BME280;27696;42.704;23.304;2022-08-03T12:32:27;95236.91;;;41.19;15.95
42007;BME280;27696;42.704;23.304;2022-08-03T12:34:53;95229.78;;;42.00;15.14
42007;BME280;27696;42.704;23.304;2022-08-03T12:37:23;95228.53;;;42.03;15.66
42007;BME280;27696;42.704;23.304;2022-08-03T12:39:54;95227.38;;;41.66;15.76
42007;BME280;27696;42.704;23.304;2022-08-03T12:42:19;95232.41;;;40.62;16.17
42007;BME280;27696;42.704;23.304;2022-08-03T12:44:45;95229.41;;;40.98;15.78
42007;BME280;27696;42.704;23.304;2022-08-03T12:47:13;95217.44;;;42.21;15.33
42007;BME280;27696;42.704;23.304;2022-08-03T12:49:51;95219.63;;;45.17;12.84
42007;BME280;27696;42.704;23.304;2022-08-03T12:52:18;95217.63;;;42.99;14.55
42007;BME280;27696;42.704;23.304;2022-08-03T12:54:58;95221.75;;;43.76;14.47
42007;BME280;27696;42.704;23.304;2022-08-03T12:57:24;95209.59;;;43.09;14.93
42007;BME280;27696;42.704;23.304;2022-08-03T12:59:50;95205.13;;;43.04;14.83
42007;BME280;27696;42.704;23.304;2022-08-03T13:02:21;95220.16;;;41.77;15.33
42007;BME280;27696;42.704;23.304;2022-08-03T13:04:50;95210.84;;;41.46;15.34
42007;BME280;27696;42.704;23.304;2022-08-03T13:07:17;95201.69;;;42.02;14.89
42007;BME280;27696;42.704;23.304;2022-08-03T13:09:45;95198.66;;;41.98;15.34
42007;BME280;27696;42.704;23.304;2022-08-03T13:12:13;95190.91;;;42.12;14.82
42007;BME280;27696;42.704;23.304;2022-08-03T13:14:40;95201.34;;;41.40;15.05
42007;BME280;27696;42.704;23.304;2022-08-03T13:17:05;95192.19;;;41.81;15.24
42007;BME280;27696;42.704;23.304;2022-08-03T13:19:32;95193.78;;;42.28;15.09
42007;BME280;27696;42.704;23.304;2022-08-03T13:21:58;95197.06;;;42.82;14.98
42007;BME280;27696;42.704;23.304;2022-08-03T13:24:24;95191.88;;;42.33;15.27
42007;BME280;27696;42.704;23.304;2022-08-03T13:26:50;95199.91;;;42.82;14.57
42007;BME280;27696;42.704;23.304;2022-08-03T13:29:16;95198.34;;;41.77;15.78
42007;BME280;27696;42.704;23.304;2022-08-03T13:31:42;95201.22;;;42.35;15.32
42007;BME280;27696;42.704;23.304;2022-08-03T13:34:07;95194.72;;;42.93;15.29
42007;BME280;27696;42.704;23.304;2022-08-03T13:36:33;95193.38;;;42.34;15.33
42007;BME280;27696;42.704;23.304;2022-08-03T13:38:59;95196.31;;;42.36;15.45
42007;BME280;27696;42.704;23.304;2022-08-03T13:41:24;95201.56;;;42.00;15.79
42007;BME280;27696;42.704;23.304;2022-08-03T13:43:49;95194.69;;;42.03;15.26
42007;BME280;27696;42.704;23.304;2022-08-03T13:46:15;95197.50;;;41.61;15.58
42007;BME280;27696;42.704;23.304;2022-08-03T13:48:40;95199.16;;;42.08;15.13
42007;BME280;27696;42.704;23.304;2022-08-03T13:51:06;95194.47;;;41.99;15.73
42007;BME280;27696;42.704;23.304;2022-08-03T13:53:31;95204.69;;;41.78;15.69
42007;BME280;27696;42.704;23.304;2022-08-03T13:55:56;95184.25;;;41.91;15.64
42007;BME280;27696;42.704;23.304;2022-08-03T13:58:22;95196.94;;;42.20;15.42
42007;BME280;27696;42.704;23.304;2022-08-03T14:00:47;95198.34;;;42.49;14.92
42007;BME280;27696;42.704;23.304;2022-08-03T14:03:13;95191.59;;;41.15;15.62
42007;BME280;27696;42.704;23.304;2022-08-03T14:05:39;95203.47;;;41.67;15.95
42007;BME280;27696;42.704;23.304;2022-08-03T14:08:05;95183.34;;;42.91;15.07
42007;BME280;27696;42.704;23.304;2022-08-03T14:10:36;95192.44;;;42.89;15.07
42007;BME280;27696;42.704;23.304;2022-08-03T14:13:03;95192.66;;;43.41;14.76
42007;BME280;27696;42.704;23.304;2022-08-03T14:15:29;95201.47;;;42.56;15.06
42007;BME280;27696;42.704;23.304;2022-08-03T14:17:55;95202.88;;;42.27;15.37
42007;BME280;27696;42.704;23.304;2022-08-03T14:20:20;95193.91;;;42.60;15.48
42007;BME280;27696;42.704;23.304;2022-08-03T14:22:48;95191.00;;;43.04;14.19
42007;BME280;27696;42.704;23.304;2022-08-03T14:25:14;95195.91;;;42.88;14.84
42007;BME280;27696;42.704;23.304;2022-08-03T14:27:39;95201.00;;;39.81;17.76
42007;BME280;27696;42.704;23.304;2022-08-03T14:30:05;95203.00;;;40.28;17.81
42007;BME280;27696;42.704;23.304;2022-08-03T14:32:30;95182.97;;;41.67;16.65
42007;BME280;27696;42.704;23.304;2022-08-03T14:34:56;95196.00;;;41.18;17.20
42007;BME280;27696;42.704;23.304;2022-08-03T14:37:21;95187.34;;;40.62;17.58
42007;BME280;27696;42.704;23.304;2022-08-03T14:39:47;95199.06;;;39.71;18.64
42007;BME280;27696;42.704;23.304;2022-08-03T14:42:12;95203.09;;;40.42;17.92
42007;BME280;27696;42.704;23.304;2022-08-03T14:44:38;95203.34;;;40.72;17.42
42007;BME280;27696;42.704;23.304;2022-08-03T14:47:03;95207.50;;;40.96;17.28
42007;BME280;27696;42.704;23.304;2022-08-03T14:49:29;95212.81;;;40.64;17.34
42007;BME280;27696;42.704;23.304;2022-08-03T14:51:54;95198.91;;;40.43;17.17
42007;BME280;27696;42.704;23.304;2022-08-03T14:54:21;95215.13;;;38.78;19.08
42007;BME280;27696;42.704;23.304;2022-08-03T14:56:46;95219.75;;;38.73;19.21
42007;BME280;27696;42.704;23.304;2022-08-03T14:59:12;95210.19;;;38.88;18.81
42007;BME280;27696;42.704;23.304;2022-08-03T15:01:37;95212.59;;;39.99;17.68
42007;BME280;27696;42.704;23.304;2022-08-03T15:04:03;95206.09;;;40.20;17.64
42007;BME280;27696;42.704;23.304;2022-08-03T15:06:28;95216.34;;;40.27;17.42
42007;BME280;27696;42.704;23.304;2022-08-03T15:08:54;95213.00;;;40.43;17.10
42007;BME280;27696;42.704;23.304;2022-08-03T15:11:19;95213.50;;;39.77;18.13
42007;BME280;27696;42.704;23.304;2022-08-03T15:13:44;95206.56;;;39.09;18.29
42007;BME280;27696;42.704;23.304;2022-08-03T15:16:10;95203.91;;;40.06;17.82
42007;BME280;27696;42.704;23.304;2022-08-03T15:18:35;95204.66;;;39.95;17.99
42007;BME280;27696;42.704;23.304;2022-08-03T15:21:01;95211.50;;;40.04;18.21
42007;BME280;27696;42.704;23.304;2022-08-03T15:23:26;95219.75;;;40.14;17.95
42007;BME280;27696;42.704;23.304;2022-08-03T15:25:52;95226.25;;;40.28;18.10
42007;BME280;27696;42.704;23.304;2022-08-03T15:28:17;95216.50;;;40.55;18.23
42007;BME280;27696;42.704;23.304;2022-08-03T15:30:43;95225.69;;;39.70;18.97
42007;BME280;27696;42.704;23.304;2022-08-03T15:33:08;95234.13;;;39.94;19.01
42007;BME280;27696;42.704;23.304;2022-08-03T15:35:34;95240.13;;;39.88;19.02
42007;BME280;27696;42.704;23.304;2022-08-03T15:37:59;95230.09;;;39.38;19.95
42007;BME280;27696;42.704;23.304;2022-08-03T15:40:25;95243.66;;;39.65;19.42
42007;BME280;27696;42.704;23.304;2022-08-03T15:42:50;95253.06;;;39.46;20.24
42007;BME280;27696;42.704;23.304;2022-08-03T15:45:16;95251.38;;;39.07;20.70
42007;BME280;27696;42.704;23.304;2022-08-03T15:47:41;95265.88;;;38.05;23.03
42007;BME280;27696;42.704;23.304;2022-08-03T15:50:07;95275.63;;;36.52;28.23
42007;BME280;27696;42.704;23.304;2022-08-03T15:52:32;95248.34;;;34.67;34.74
42007;BME280;27696;42.704;23.304;2022-08-03T15:54:58;95236.84;;;34.98;33.26
42007;BME280;27696;42.704;23.304;2022-08-03T15:57:23;95229.81;;;35.61;32.50
42007;BME280;27696;42.704;23.304;2022-08-03T15:59:49;95229.78;;;34.97;32.57
42007;BME280;27696;42.704;23.304;2022-08-03T16:02:15;95241.16;;;35.09;34.87
42007;BME280;27696;42.704;23.304;2022-08-03T16:04:40;95229.09;;;35.06;33.42
42007;BME280;27696;42.704;23.304;2022-08-03T16:07:06;95225.31;;;35.86;32.75
42007;BME280;27696;42.704;23.304;2022-08-03T16:09:31;95241.09;;;35.54;32.94
42007;BME280;27696;42.704;23.304;2022-08-03T16:11:57;95246.38;;;35.49;34.71
42007;BME280;27696;42.704;23.304;2022-08-03T16:14:22;95241.75;;;36.19;33.70
42007;BME280;27696;42.704;23.304;2022-08-03T16:16:48;95257.69;;;36.46;32.42
42007;BME280;27696;42.704;23.304;2022-08-03T16:19:13;95271.09;;;36.47;32.03
42007;BME280;27696;42.704;23.304;2022-08-03T16:21:38;95258.28;;;37.54;31.21
42007;BME280;27696;42.704;23.304;2022-08-03T16:24:04;95259.16;;;37.06;29.64
42007;BME280;27696;42.704;23.304;2022-08-03T16:26:30;95255.47;;;37.54;28.94
42007;BME280;27696;42.704;23.304;2022-08-03T16:28:55;95259.75;;;35.88;31.75
42007;BME280;27696;42.704;23.304;2022-08-03T16:31:20;95259.19;;;35.90;31.92
42007;BME280;27696;42.704;23.304;2022-08-03T16:33:47;95253.78;;;36.02;30.14
42007;BME280;27696;42.704;23.304;2022-08-03T16:36:13;95256.00;;;35.66;31.91
42007;BME280;27696;42.704;23.304;2022-08-03T16:38:39;95239.56;;;35.80;31.60
42007;BME280;27696;42.704;23.304;2022-08-03T16:41:04;95255.69;;;35.62;32.45
42007;BME280;27696;42.704;23.304;2022-08-03T16:43:30;95203.63;;;35.57;30.67
42007;BME280;27696;42.704;23.304;2022-08-03T16:45:58;95256.31;;;35.70;31.30
42007;BME280;27696;42.704;23.304;2022-08-03T16:48:24;95250.22;;;35.27;30.79
42007;BME280;27696;42.704;23.304;2022-08-03T16:50:49;95255.03;;;35.44;29.27
42007;BME280;27696;42.704;23.304;2022-08-03T16:53:15;95260.66;;;35.54;30.30
42007;BME280;27696;42.704;23.304;2022-08-03T16:55:40;95260.50;;;34.79;28.48
42007;BME280;27696;42.704;23.304;2022-08-03T16:58:06;95255.53;;;35.60;29.04
42007;BME280;27696;42.704;23.304;2022-08-03T17:00:32;95260.22;;;35.57;29.27
42007;BME280;27696;42.704;23.304;2022-08-03T17:03:00;95253.19;;;36.03;29.12
42007;BME280;27696;42.704;23.304;2022-08-03T17:05:26;95226.16;;;35.69;28.13
42007;BME280;27696;42.704;23.304;2022-08-03T17:07:53;95252.03;;;36.16;28.88
42007;BME280;27696;42.704;23.304;2022-08-03T17:10:20;95246.38;;;35.87;30.34
42007;BME280;27696;42.704;23.304;2022-08-03T17:12:46;95246.22;;;35.47;29.23
42007;BME280;27696;42.704;23.304;2022-08-03T17:15:11;95248.56;;;36.75;27.85
42007;BME280;27696;42.704;23.304;2022-08-03T17:17:43;95253.47;;;35.98;29.51
42007;BME280;27696;42.704;23.304;2022-08-03T17:20:11;95242.47;;;36.88;26.31
42007;BME280;27696;42.704;23.304;2022-08-03T17:22:49;95243.25;;;36.98;28.72
42007;BME280;27696;42.704;23.304;2022-08-03T17:25:17;95236.91;;;36.98;26.09
42007;BME280;27696;42.704;23.304;2022-08-03T17:27:44;95239.72;;;36.49;29.07
42007;BME280;27696;42.704;23.304;2022-08-03T17:30:11;95245.91;;;36.57;28.21
42007;BME280;27696;42.704;23.304;2022-08-03T17:32:41;95259.53;;;36.04;28.51
42007;BME280;27696;42.704;23.304;2022-08-03T17:35:07;95256.44;;;36.09;29.02
42007;BME280;27696;42.704;23.304;2022-08-03T17:37:33;95260.72;;;36.20;29.97
42007;BME280;27696;42.704;23.304;2022-08-03T17:39:59;95262.94;;;35.75;30.34
42007;BME280;27696;42.704;23.304;2022-08-03T17:42:26;95250.63;;;36.64;28.72
42007;BME280;27696;42.704;23.304;2022-08-03T17:44:53;95245.03;;;36.64;28.07
42007;BME280;27696;42.704;23.304;2022-08-03T17:47:19;95245.16;;;36.66;27.75
42007;BME280;27696;42.704;23.304;2022-08-03T17:49:45;95239.19;;;38.25;23.49
42007;BME280;27696;42.704;23.304;2022-08-03T17:52:36;95244.06;;;37.30;26.88
42007;BME280;27696;42.704;23.304;2022-08-03T17:55:07;95257.03;;;36.18;28.08
42007;BME280;27696;42.704;23.304;2022-08-03T18:00:10;95244.44;;;35.89;27.70
42007;BME280;27696;42.704;23.304;2022-08-03T18:03:03;95260.97;;;35.03;29.07
42007;BME280;27696;42.704;23.304;2022-08-03T18:05:52;95255.78;;;35.27;29.92
42007;BME280;27696;42.704;23.304;2022-08-03T18:08:30;95264.06;;;35.62;29.24
42007;BME280;27696;42.704;23.304;2022-08-03T18:11:11;95275.72;;;35.13;30.44
42007;BME280;27696;42.704;23.304;2022-08-03T18:14:57;95266.09;;;35.89;30.23